sensor_id;sensor_type;location;lat;lon;timestamp;temperature;humidity
326;DHT22;150;52.352;14.058;2023-05-19T00:04:36;11.90;24.80
326;DHT22;150;52.352;14.058;2023-05-19T00:07:37;11.90;24.80
326;DHT22;150;52.352;14.058;2023-05-19T00:13:49;11.90;24.80
326;DHT22;150;52.352;14.058;2023-05-19T00:20:31;11.80;24.80
326;DHT22;150;52.352;14.058;2023-05-19T00:26:17;11.70;24.80
326;DHT22;150;52.352;14.058;2023-05-19T00:28:44;11.70;24.70
326;DHT22;150;52.352;14.058;2023-05-19T00:31:10;11.60;24.90
326;DHT22;150;52.352;14.058;2023-05-19T00:33:37;11.60;24.90
326;DHT22;150;52.352;14.058;2023-05-19T00:36:04;11.60;24.80
326;DHT22;150;52.352;14.058;2023-05-19T00:38:34;11.60;25.00
326;DHT22;150;52.352;14.058;2023-05-19T00:41:04;11.50;25.00
326;DHT22;150;52.352;14.058;2023-05-19T00:43:34;11.50;25.10
326;DHT22;150;52.352;14.058;2023-05-19T00:46:07;11.50;25.20
326;DHT22;150;52.352;14.058;2023-05-19T00:48:35;11.50;24.90
326;DHT22;150;52.352;14.058;2023-05-19T00:51:02;11.50;25.00
326;DHT22;150;52.352;14.058;2023-05-19T00:53:34;11.40;25.00
326;DHT22;150;52.352;14.058;2023-05-19T00:56:03;11.40;25.20
326;DHT22;150;52.352;14.058;2023-05-19T00:58:32;11.40;25.30
326;DHT22;150;52.352;14.058;2023-05-19T01:00:59;11.30;25.50
326;DHT22;150;52.352;14.058;2023-05-19T01:03:29;11.20;25.80
326;DHT22;150;52.352;14.058;2023-05-19T01:05:56;11.20;26.20
326;DHT22;150;52.352;14.058;2023-05-19T01:08:26;11.20;26.20
326;DHT22;150;52.352;14.058;2023-05-19T01:10:54;11.10;26.20
326;DHT22;150;52.352;14.058;2023-05-19T01:13:21;11.10;26.20
326;DHT22;150;52.352;14.058;2023-05-19T01:15:57;11.10;26.10
326;DHT22;150;52.352;14.058;2023-05-19T01:18:31;11.00;26.10
326;DHT22;150;52.352;14.058;2023-05-19T01:21:12;11.00;27.10
326;DHT22;150;52.352;14.058;2023-05-19T01:23:51;11.00;27.20
326;DHT22;150;52.352;14.058;2023-05-19T01:26:38;10.90;26.80
326;DHT22;150;52.352;14.058;2023-05-19T01:29:28;10.90;26.90
326;DHT22;150;52.352;14.058;2023-05-19T01:32:03;10.90;26.80
326;DHT22;150;52.352;14.058;2023-05-19T01:34:32;10.90;26.90
326;DHT22;150;52.352;14.058;2023-05-19T01:37:01;10.90;26.90
326;DHT22;150;52.352;14.058;2023-05-19T01:39:29;10.80;26.90
326;DHT22;150;52.352;14.058;2023-05-19T01:41:57;10.90;27.20
326;DHT22;150;52.352;14.058;2023-05-19T01:44:24;10.80;26.90
326;DHT22;150;52.352;14.058;2023-05-19T01:46:51;10.80;27.00
326;DHT22;150;52.352;14.058;2023-05-19T01:49:19;10.70;27.30
326;DHT22;150;52.352;14.058;2023-05-19T01:51:48;10.70;27.20
326;DHT22;150;52.352;14.058;2023-05-19T01:54:15;10.70;27.60
326;DHT22;150;52.352;14.058;2023-05-19T01:56:56;10.70;27.60
326;DHT22;150;52.352;14.058;2023-05-19T01:59:34;10.70;27.30
326;DHT22;150;52.352;14.058;2023-05-19T02:02:07;10.70;27.30
326;DHT22;150;52.352;14.058;2023-05-19T02:04:42;10.70;27.40
326;DHT22;150;52.352;14.058;2023-05-19T02:07:14;10.60;27.30
326;DHT22;150;52.352;14.058;2023-05-19T02:09:51;10.60;27.50
326;DHT22;150;52.352;14.058;2023-05-19T02:12:23;10.60;27.40
326;DHT22;150;52.352;14.058;2023-05-19T02:14:57;10.50;27.40
326;DHT22;150;52.352;14.058;2023-05-19T02:17:26;10.50;27.50
326;DHT22;150;52.352;14.058;2023-05-19T02:19:55;10.50;27.80
326;DHT22;150;52.352;14.058;2023-05-19T02:22:22;10.50;28.50
326;DHT22;150;52.352;14.058;2023-05-19T02:24:49;10.40;27.80
326;DHT22;150;52.352;14.058;2023-05-19T02:27:16;10.40;28.10
326;DHT22;150;52.352;14.058;2023-05-19T02:29:43;10.40;27.80
326;DHT22;150;52.352;14.058;2023-05-19T02:32:10;10.40;28.10
326;DHT22;150;52.352;14.058;2023-05-19T02:34:37;10.40;27.90
326;DHT22;150;52.352;14.058;2023-05-19T02:37:05;10.40;28.10
326;DHT22;150;52.352;14.058;2023-05-19T02:39:32;10.60;28.40
326;DHT22;150;52.352;14.058;2023-05-19T02:42:00;10.30;28.40
326;DHT22;150;52.352;14.058;2023-05-19T02:44:26;10.30;28.50
326;DHT22;150;52.352;14.058;2023-05-19T02:46:53;10.30;28.00
326;DHT22;150;52.352;14.058;2023-05-19T02:49:20;10.30;28.50
326;DHT22;150;52.352;14.058;2023-05-19T02:51:46;10.30;28.80
326;DHT22;150;52.352;14.058;2023-05-19T02:54:14;10.30;28.10
326;DHT22;150;52.352;14.058;2023-05-19T02:56:41;10.30;28.10
326;DHT22;150;52.352;14.058;2023-05-19T02:59:08;10.20;28.50
326;DHT22;150;52.352;14.058;2023-05-19T03:01:35;10.20;28.40
326;DHT22;150;52.352;14.058;2023-05-19T03:04:01;10.20;28.40
326;DHT22;150;52.352;14.058;2023-05-19T03:06:28;10.10;28.40
326;DHT22;150;52.352;14.058;2023-05-19T03:09:00;10.10;28.70
326;DHT22;150;52.352;14.058;2023-05-19T03:11:28;10.00;28.70
326;DHT22;150;52.352;14.058;2023-05-19T03:13:55;10.00;29.10
326;DHT22;150;52.352;14.058;2023-05-19T03:16:22;10.00;29.10
326;DHT22;150;52.352;14.058;2023-05-19T03:18:49;10.00;28.90
326;DHT22;150;52.352;14.058;2023-05-19T03:21:18;10.00;28.90
326;DHT22;150;52.352;14.058;2023-05-19T03:23:44;9.90;29.70
326;DHT22;150;52.352;14.058;2023-05-19T03:26:11;10.00;29.00
326;DHT22;150;52.352;14.058;2023-05-19T03:28:39;10.00;28.90
326;DHT22;150;52.352;14.058;2023-05-19T03:31:06;10.00;28.80
326;DHT22;150;52.352;14.058;2023-05-19T03:33:33;10.00;28.80
326;DHT22;150;52.352;14.058;2023-05-19T03:35:59;10.10;29.10
326;DHT22;150;52.352;14.058;2023-05-19T03:38:26;10.10;29.00
326;DHT22;150;52.352;14.058;2023-05-19T03:40:53;10.20;29.20
326;DHT22;150;52.352;14.058;2023-05-19T03:43:20;10.40;28.70
326;DHT22;150;52.352;14.058;2023-05-19T03:45:48;10.60;28.40
326;DHT22;150;52.352;14.058;2023-05-19T03:48:16;10.70;27.90
326;DHT22;150;52.352;14.058;2023-05-19T03:50:43;10.80;27.80
326;DHT22;150;52.352;14.058;2023-05-19T03:53:10;10.80;28.30
326;DHT22;150;52.352;14.058;2023-05-19T03:55:36;10.90;28.30
326;DHT22;150;52.352;14.058;2023-05-19T03:58:04;11.00;27.60
326;DHT22;150;52.352;14.058;2023-05-19T04:00:30;11.10;27.70
326;DHT22;150;52.352;14.058;2023-05-19T04:02:59;11.20;27.80
326;DHT22;150;52.352;14.058;2023-05-19T04:05:25;11.20;27.70
326;DHT22;150;52.352;14.058;2023-05-19T04:07:52;11.30;27.50
326;DHT22;150;52.352;14.058;2023-05-19T04:10:44;11.50;27.50
326;DHT22;150;52.352;14.058;2023-05-19T04:14:30;11.70;27.50
326;DHT22;150;52.352;14.058;2023-05-19T04:17:17;12.20;26.70
326;DHT22;150;52.352;14.058;2023-05-19T04:20:17;13.00;25.60
326;DHT22;150;52.352;14.058;2023-05-19T04:30:15;15.20;19.70
326;DHT22;150;52.352;14.058;2023-05-19T04:33:26;15.30;19.50
326;DHT22;150;52.352;14.058;2023-05-19T05:02:28;13.60;22.90
326;DHT22;150;52.352;14.058;2023-05-19T05:09:25;13.50;23.60
326;DHT22;150;52.352;14.058;2023-05-19T05:12:56;13.50;24.10
326;DHT22;150;52.352;14.058;2023-05-19T05:15:54;13.70;24.00
326;DHT22;150;52.352;14.058;2023-05-19T05:18:40;13.80;23.30
326;DHT22;150;52.352;14.058;2023-05-19T05:21:11;13.70;23.70
326;DHT22;150;52.352;14.058;2023-05-19T05:24:05;13.80;23.80
326;DHT22;150;52.352;14.058;2023-05-19T05:26:59;13.90;24.10
326;DHT22;150;52.352;14.058;2023-05-19T05:30:00;14.10;23.90
326;DHT22;150;52.352;14.058;2023-05-19T05:33:09;14.20;23.60
326;DHT22;150;52.352;14.058;2023-05-19T05:38:56;14.40;23.00
326;DHT22;150;52.352;14.058;2023-05-19T05:45:26;14.60;22.70
326;DHT22;150;52.352;14.058;2023-05-19T05:48:07;14.90;22.50
326;DHT22;150;52.352;14.058;2023-05-19T05:51:07;14.90;21.90
326;DHT22;150;52.352;14.058;2023-05-19T05:54:04;14.70;22.30
326;DHT22;150;52.352;14.058;2023-05-19T05:57:19;14.60;22.80
326;DHT22;150;52.352;14.058;2023-05-19T06:00:19;14.60;22.80
326;DHT22;150;52.352;14.058;2023-05-19T06:06:34;14.70;22.50
326;DHT22;150;52.352;14.058;2023-05-19T06:09:52;14.90;22.90
326;DHT22;150;52.352;14.058;2023-05-19T06:16:25;15.20;23.00
326;DHT22;150;52.352;14.058;2023-05-19T06:26:23;15.70;21.80
326;DHT22;150;52.352;14.058;2023-05-19T06:28:51;16.00;21.00
326;DHT22;150;52.352;14.058;2023-05-19T06:31:17;16.10;20.80
326;DHT22;150;52.352;14.058;2023-05-19T06:33:44;16.10;20.40
326;DHT22;150;52.352;14.058;2023-05-19T06:36:11;16.10;20.70
326;DHT22;150;52.352;14.058;2023-05-19T06:38:38;16.20;21.10
326;DHT22;150;52.352;14.058;2023-05-19T06:41:05;16.30;20.70
326;DHT22;150;52.352;14.058;2023-05-19T06:43:33;16.60;20.70
326;DHT22;150;52.352;14.058;2023-05-19T06:46:00;16.80;20.70
326;DHT22;150;52.352;14.058;2023-05-19T06:48:27;16.70;19.80
326;DHT22;150;52.352;14.058;2023-05-19T06:50:55;16.80;20.10
326;DHT22;150;52.352;14.058;2023-05-19T06:53:22;16.70;21.20
326;DHT22;150;52.352;14.058;2023-05-19T06:55:49;16.70;20.20
326;DHT22;150;52.352;14.058;2023-05-19T06:58:22;16.60;20.20
326;DHT22;150;52.352;14.058;2023-05-19T07:00:50;16.40;20.80
326;DHT22;150;52.352;14.058;2023-05-19T07:03:17;16.40;20.40
326;DHT22;150;52.352;14.058;2023-05-19T07:05:43;16.50;20.90
326;DHT22;150;52.352;14.058;2023-05-19T07:08:10;16.50;20.80
326;DHT22;150;52.352;14.058;2023-05-19T07:10:37;16.40;20.70
326;DHT22;150;52.352;14.058;2023-05-19T07:13:05;16.60;21.20
326;DHT22;150;52.352;14.058;2023-05-19T07:15:32;16.80;20.40
326;DHT22;150;52.352;14.058;2023-05-19T07:18:01;16.90;20.00
326;DHT22;150;52.352;14.058;2023-05-19T07:20:28;16.70;20.30
326;DHT22;150;52.352;14.058;2023-05-19T07:22:55;16.80;20.70
326;DHT22;150;52.352;14.058;2023-05-19T07:25:21;16.90;19.50
326;DHT22;150;52.352;14.058;2023-05-19T07:27:48;17.00;20.40
326;DHT22;150;52.352;14.058;2023-05-19T07:30:15;17.20;19.70
326;DHT22;150;52.352;14.058;2023-05-19T07:32:43;17.30;19.70
326;DHT22;150;52.352;14.058;2023-05-19T07:35:12;17.40;19.80
326;DHT22;150;52.352;14.058;2023-05-19T07:37:39;17.60;19.90
326;DHT22;150;52.352;14.058;2023-05-19T07:40:07;17.80;19.10
326;DHT22;150;52.352;14.058;2023-05-19T07:42:40;17.90;18.80
326;DHT22;150;52.352;14.058;2023-05-19T07:45:08;18.00;18.70
326;DHT22;150;52.352;14.058;2023-05-19T07:47:35;18.00;18.30
326;DHT22;150;52.352;14.058;2023-05-19T07:50:02;18.00;18.00
326;DHT22;150;52.352;14.058;2023-05-19T07:52:30;18.00;18.30
326;DHT22;150;52.352;14.058;2023-05-19T07:54:57;18.00;18.40
326;DHT22;150;52.352;14.058;2023-05-19T07:57:24;18.00;18.00
326;DHT22;150;52.352;14.058;2023-05-19T07:59:51;17.90;18.70
326;DHT22;150;52.352;14.058;2023-05-19T08:02:18;18.00;18.00
326;DHT22;150;52.352;14.058;2023-05-19T08:04:44;18.20;18.30
326;DHT22;150;52.352;14.058;2023-05-19T08:07:13;18.10;18.80
326;DHT22;150;52.352;14.058;2023-05-19T08:09:41;18.30;18.30
326;DHT22;150;52.352;14.058;2023-05-19T08:12:07;18.60;17.50
326;DHT22;150;52.352;14.058;2023-05-19T08:14:34;18.60;17.00
326;DHT22;150;52.352;14.058;2023-05-19T08:17:01;18.60;17.10
326;DHT22;150;52.352;14.058;2023-05-19T08:19:28;18.60;17.90
326;DHT22;150;52.352;14.058;2023-05-19T08:21:58;18.50;17.90
326;DHT22;150;52.352;14.058;2023-05-19T08:24:25;18.60;17.30
326;DHT22;150;52.352;14.058;2023-05-19T08:26:55;18.50;17.00
326;DHT22;150;52.352;14.058;2023-05-19T08:29:21;18.70;17.00
326;DHT22;150;52.352;14.058;2023-05-19T08:31:48;19.00;16.90
326;DHT22;150;52.352;14.058;2023-05-19T08:34:15;19.00;16.30
326;DHT22;150;52.352;14.058;2023-05-19T08:36:41;19.30;16.20
326;DHT22;150;52.352;14.058;2023-05-19T08:39:09;19.50;16.00
326;DHT22;150;52.352;14.058;2023-05-19T08:41:37;19.70;15.80
326;DHT22;150;52.352;14.058;2023-05-19T08:44:06;19.70;15.10
326;DHT22;150;52.352;14.058;2023-05-19T08:46:33;19.70;15.60
326;DHT22;150;52.352;14.058;2023-05-19T08:49:04;19.70;13.70
326;DHT22;150;52.352;14.058;2023-05-19T08:51:38;19.70;14.10
326;DHT22;150;52.352;14.058;2023-05-19T08:54:12;19.50;12.20
326;DHT22;150;52.352;14.058;2023-05-19T08:56:41;19.30;12.20
326;DHT22;150;52.352;14.058;2023-05-19T08:59:10;19.40;12.90
326;DHT22;150;52.352;14.058;2023-05-19T09:01:38;19.40;13.60
326;DHT22;150;52.352;14.058;2023-05-19T09:04:05;19.60;12.20
326;DHT22;150;52.352;14.058;2023-05-19T09:06:32;19.80;12.80
326;DHT22;150;52.352;14.058;2023-05-19T09:08:59;20.00;11.50
326;DHT22;150;52.352;14.058;2023-05-19T09:11:26;20.00;11.30
326;DHT22;150;52.352;14.058;2023-05-19T09:13:52;20.00;12.30
326;DHT22;150;52.352;14.058;2023-05-19T09:16:21;19.80;12.40
326;DHT22;150;52.352;14.058;2023-05-19T09:18:54;19.90;12.40
326;DHT22;150;52.352;14.058;2023-05-19T09:21:26;19.90;12.10
326;DHT22;150;52.352;14.058;2023-05-19T09:23:55;19.90;11.70
326;DHT22;150;52.352;14.058;2023-05-19T09:26:23;19.80;11.70
326;DHT22;150;52.352;14.058;2023-05-19T09:28:49;19.70;11.40
326;DHT22;150;52.352;14.058;2023-05-19T09:31:16;19.60;12.20
326;DHT22;150;52.352;14.058;2023-05-19T09:33:44;19.80;12.40
326;DHT22;150;52.352;14.058;2023-05-19T09:36:11;19.80;12.40
326;DHT22;150;52.352;14.058;2023-05-19T09:38:38;19.80;12.40
326;DHT22;150;52.352;14.058;2023-05-19T09:41:06;19.70;12.30
326;DHT22;150;52.352;14.058;2023-05-19T09:43:34;19.60;12.90
326;DHT22;150;52.352;14.058;2023-05-19T09:46:03;19.70;11.20
326;DHT22;150;52.352;14.058;2023-05-19T09:48:34;19.70;10.80
326;DHT22;150;52.352;14.058;2023-05-19T09:51:03;19.80;12.40
326;DHT22;150;52.352;14.058;2023-05-19T09:53:33;20.00;12.00
326;DHT22;150;52.352;14.058;2023-05-19T09:56:03;20.10;12.10
326;DHT22;150;52.352;14.058;2023-05-19T09:58:31;19.90;12.40
326;DHT22;150;52.352;14.058;2023-05-19T10:01:00;19.80;11.60
326;DHT22;150;52.352;14.058;2023-05-19T10:03:27;19.50;12.20
326;DHT22;150;52.352;14.058;2023-05-19T10:05:54;19.30;12.00
326;DHT22;150;52.352;14.058;2023-05-19T10:08:22;19.40;13.20
326;DHT22;150;52.352;14.058;2023-05-19T10:10:52;19.40;13.30
326;DHT22;150;52.352;14.058;2023-05-19T10:13:20;19.40;12.70
326;DHT22;150;52.352;14.058;2023-05-19T10:15:48;19.60;13.60
326;DHT22;150;52.352;14.058;2023-05-19T10:18:16;19.60;13.10
326;DHT22;150;52.352;14.058;2023-05-19T10:20:43;19.60;12.80
326;DHT22;150;52.352;14.058;2023-05-19T10:23:15;19.60;13.60
326;DHT22;150;52.352;14.058;2023-05-19T10:25:47;19.50;13.10
326;DHT22;150;52.352;14.058;2023-05-19T10:28:17;19.60;13.10
326;DHT22;150;52.352;14.058;2023-05-19T10:30:49;19.70;12.30
326;DHT22;150;52.352;14.058;2023-05-19T10:33:18;19.60;12.70
326;DHT22;150;52.352;14.058;2023-05-19T10:36:01;19.60;12.20
326;DHT22;150;52.352;14.058;2023-05-19T10:38:39;19.80;13.10
326;DHT22;150;52.352;14.058;2023-05-19T10:41:20;20.20;13.30
326;DHT22;150;52.352;14.058;2023-05-19T10:43:57;20.10;12.30
326;DHT22;150;52.352;14.058;2023-05-19T10:46:29;20.10;12.60
326;DHT22;150;52.352;14.058;2023-05-19T10:48:56;20.50;13.80
326;DHT22;150;52.352;14.058;2023-05-19T10:51:30;20.60;12.30
326;DHT22;150;52.352;14.058;2023-05-19T10:54:09;20.50;11.40
326;DHT22;150;52.352;14.058;2023-05-19T10:56:53;20.70;12.10
326;DHT22;150;52.352;14.058;2023-05-19T10:59:40;20.90;10.90
326;DHT22;150;52.352;14.058;2023-05-19T11:02:09;20.80;11.10
326;DHT22;150;52.352;14.058;2023-05-19T11:04:45;20.80;10.80
326;DHT22;150;52.352;14.058;2023-05-19T11:07:53;20.60;11.30
326;DHT22;150;52.352;14.058;2023-05-19T11:10:24;20.30;12.00
326;DHT22;150;52.352;14.058;2023-05-19T11:12:58;20.20;12.70
326;DHT22;150;52.352;14.058;2023-05-19T11:15:54;20.10;12.60
326;DHT22;150;52.352;14.058;2023-05-19T11:18:23;19.90;12.40
326;DHT22;150;52.352;14.058;2023-05-19T11:20:54;19.60;13.00
326;DHT22;150;52.352;14.058;2023-05-19T11:23:24;19.50;14.00
326;DHT22;150;52.352;14.058;2023-05-19T11:25:51;19.70;13.30
326;DHT22;150;52.352;14.058;2023-05-19T11:28:21;19.80;13.90
326;DHT22;150;52.352;14.058;2023-05-19T11:30:52;19.70;12.30
326;DHT22;150;52.352;14.058;2023-05-19T11:33:19;19.70;13.50
326;DHT22;150;52.352;14.058;2023-05-19T11:35:52;19.70;13.20
326;DHT22;150;52.352;14.058;2023-05-19T11:38:20;19.70;13.20
326;DHT22;150;52.352;14.058;2023-05-19T11:40:48;19.80;15.30
326;DHT22;150;52.352;14.058;2023-05-19T11:43:22;20.00;13.10
326;DHT22;150;52.352;14.058;2023-05-19T11:45:49;20.10;13.20
326;DHT22;150;52.352;14.058;2023-05-19T11:48:19;20.10;12.00
326;DHT22;150;52.352;14.058;2023-05-19T11:50:50;20.00;11.90
326;DHT22;150;52.352;14.058;2023-05-19T11:53:32;20.10;12.00
326;DHT22;150;52.352;14.058;2023-05-19T11:56:02;20.00;11.70
326;DHT22;150;52.352;14.058;2023-05-19T11:58:36;19.80;11.40
326;DHT22;150;52.352;14.058;2023-05-19T12:01:03;19.80;12.40
326;DHT22;150;52.352;14.058;2023-05-19T12:03:31;19.80;11.80
326;DHT22;150;52.352;14.058;2023-05-19T12:05:57;19.90;11.10
326;DHT22;150;52.352;14.058;2023-05-19T12:08:24;19.80;11.30
326;DHT22;150;52.352;14.058;2023-05-19T12:10:51;19.90;12.00
326;DHT22;150;52.352;14.058;2023-05-19T12:13:18;20.00;11.40
326;DHT22;150;52.352;14.058;2023-05-19T12:15:49;20.00;11.60
326;DHT22;150;52.352;14.058;2023-05-19T12:18:16;20.20;11.10
326;DHT22;150;52.352;14.058;2023-05-19T12:20:43;20.10;10.40
326;DHT22;150;52.352;14.058;2023-05-19T12:23:10;20.10;10.50
326;DHT22;150;52.352;14.058;2023-05-19T12:25:37;20.00;10.30
326;DHT22;150;52.352;14.058;2023-05-19T12:28:04;19.90;11.20
326;DHT22;150;52.352;14.058;2023-05-19T12:30:31;20.00;10.70
326;DHT22;150;52.352;14.058;2023-05-19T12:33:00;20.20;10.30
326;DHT22;150;52.352;14.058;2023-05-19T12:35:29;20.20;9.40
326;DHT22;150;52.352;14.058;2023-05-19T12:38:01;20.30;10.90
326;DHT22;150;52.352;14.058;2023-05-19T12:40:34;20.30;10.00
326;DHT22;150;52.352;14.058;2023-05-19T12:46:08;20.10;10.30
326;DHT22;150;52.352;14.058;2023-05-19T12:48:46;20.10;11.00
326;DHT22;150;52.352;14.058;2023-05-19T12:51:20;20.30;11.10
326;DHT22;150;52.352;14.058;2023-05-19T12:53:49;20.30;11.40
326;DHT22;150;52.352;14.058;2023-05-19T12:56:16;20.30;11.60
326;DHT22;150;52.352;14.058;2023-05-19T12:58:43;20.50;11.50
326;DHT22;150;52.352;14.058;2023-05-19T13:01:15;20.50;11.80
326;DHT22;150;52.352;14.058;2023-05-19T13:03:43;20.60;10.30
326;DHT22;150;52.352;14.058;2023-05-19T13:06:14;20.50;10.80
326;DHT22;150;52.352;14.058;2023-05-19T13:08:40;20.40;11.30
326;DHT22;150;52.352;14.058;2023-05-19T13:11:07;20.30;11.20
326;DHT22;150;52.352;14.058;2023-05-19T13:13:36;20.40;11.10
326;DHT22;150;52.352;14.058;2023-05-19T13:16:03;20.20;11.40
326;DHT22;150;52.352;14.058;2023-05-19T13:18:40;20.30;11.50
326;DHT22;150;52.352;14.058;2023-05-19T13:21:11;20.30;11.40
326;DHT22;150;52.352;14.058;2023-05-19T13:23:42;20.30;10.80
326;DHT22;150;52.352;14.058;2023-05-19T13:30:10;19.80;11.50
326;DHT22;150;52.352;14.058;2023-05-19T13:33:29;19.90;11.90
326;DHT22;150;52.352;14.058;2023-05-19T13:59:06;20.10;11.50
326;DHT22;150;52.352;14.058;2023-05-19T14:01:47;19.90;11.50
326;DHT22;150;52.352;14.058;2023-05-19T14:04:31;20.10;11.50
326;DHT22;150;52.352;14.058;2023-05-19T14:07:15;20.20;11.10
326;DHT22;150;52.352;14.058;2023-05-19T14:09:45;20.10;11.10
326;DHT22;150;52.352;14.058;2023-05-19T14:12:12;20.10;11.20
326;DHT22;150;52.352;14.058;2023-05-19T14:14:41;20.10;11.30
326;DHT22;150;52.352;14.058;2023-05-19T14:17:07;20.30;11.80
326;DHT22;150;52.352;14.058;2023-05-19T14:19:34;20.20;11.60
326;DHT22;150;52.352;14.058;2023-05-19T14:22:16;20.10;11.70
326;DHT22;150;52.352;14.058;2023-05-19T14:24:44;20.00;11.50
326;DHT22;150;52.352;14.058;2023-05-19T14:27:16;19.80;12.10
326;DHT22;150;52.352;14.058;2023-05-19T14:29:46;19.60;12.20
326;DHT22;150;52.352;14.058;2023-05-19T14:32:33;19.50;12.20
326;DHT22;150;52.352;14.058;2023-05-19T14:35:03;19.50;12.20
326;DHT22;150;52.352;14.058;2023-05-19T14:37:31;19.30;12.60
326;DHT22;150;52.352;14.058;2023-05-19T14:40:01;19.20;13.10
326;DHT22;150;52.352;14.058;2023-05-19T14:42:28;19.00;12.80
326;DHT22;150;52.352;14.058;2023-05-19T14:44:57;19.00;13.40
326;DHT22;150;52.352;14.058;2023-05-19T14:47:23;18.90;13.30
326;DHT22;150;52.352;14.058;2023-05-19T14:49:54;19.40;13.80
326;DHT22;150;52.352;14.058;2023-05-19T14:52:21;19.10;14.00
326;DHT22;150;52.352;14.058;2023-05-19T14:54:48;19.00;13.60
326;DHT22;150;52.352;14.058;2023-05-19T14:57:17;19.10;13.50
326;DHT22;150;52.352;14.058;2023-05-19T14:59:56;19.00;13.40
326;DHT22;150;52.352;14.058;2023-05-19T15:02:24;19.10;13.30
326;DHT22;150;52.352;14.058;2023-05-19T15:04:51;19.20;13.80
326;DHT22;150;52.352;14.058;2023-05-19T15:07:18;19.10;13.40
326;DHT22;150;52.352;14.058;2023-05-19T15:09:47;19.30;12.90
326;DHT22;150;52.352;14.058;2023-05-19T15:12:13;19.30;12.60
326;DHT22;150;52.352;14.058;2023-05-19T15:14:42;19.40;13.30
326;DHT22;150;52.352;14.058;2023-05-19T15:17:09;19.50;13.30
326;DHT22;150;52.352;14.058;2023-05-19T15:19:37;19.40;12.10
326;DHT22;150;52.352;14.058;2023-05-19T15:22:12;19.50;12.80
326;DHT22;150;52.352;14.058;2023-05-19T15:24:44;19.30;13.00
326;DHT22;150;52.352;14.058;2023-05-19T15:27:11;19.20;13.20
326;DHT22;150;52.352;14.058;2023-05-19T15:29:42;19.00;13.40
326;DHT22;150;52.352;14.058;2023-05-19T15:32:11;19.00;13.40
326;DHT22;150;52.352;14.058;2023-05-19T15:34:39;19.00;13.20
326;DHT22;150;52.352;14.058;2023-05-19T15:37:05;19.00;12.70
326;DHT22;150;52.352;14.058;2023-05-19T15:39:32;19.10;13.00
326;DHT22;150;52.352;14.058;2023-05-19T15:42:02;19.20;12.60
326;DHT22;150;52.352;14.058;2023-05-19T15:44:34;19.20;13.00
326;DHT22;150;52.352;14.058;2023-05-19T15:47:03;19.40;13.10
326;DHT22;150;52.352;14.058;2023-05-19T15:49:34;19.40;12.70
326;DHT22;150;52.352;14.058;2023-05-19T15:52:05;19.40;12.70
326;DHT22;150;52.352;14.058;2023-05-19T15:54:32;19.30;12.50
326;DHT22;150;52.352;14.058;2023-05-19T15:57:09;19.40;12.60
326;DHT22;150;52.352;14.058;2023-05-19T15:59:48;19.50;12.20
326;DHT22;150;52.352;14.058;2023-05-19T16:02:17;19.50;12.20
326;DHT22;150;52.352;14.058;2023-05-19T16:05:10;19.30;12.10
326;DHT22;150;52.352;14.058;2023-05-19T16:07:38;19.10;11.90
326;DHT22;150;52.352;14.058;2023-05-19T16:10:12;19.10;12.40
326;DHT22;150;52.352;14.058;2023-05-19T16:12:47;19.00;12.20
326;DHT22;150;52.352;14.058;2023-05-19T16:15:16;19.00;12.80
326;DHT22;150;52.352;14.058;2023-05-19T16:17:42;19.00;12.60
326;DHT22;150;52.352;14.058;2023-05-19T16:20:12;18.90;12.60
326;DHT22;150;52.352;14.058;2023-05-19T16:22:47;18.90;13.10
326;DHT22;150;52.352;14.058;2023-05-19T16:25:15;18.80;12.80
326;DHT22;150;52.352;14.058;2023-05-19T16:27:44;18.70;12.60
326;DHT22;150;52.352;14.058;2023-05-19T16:30:11;18.70;12.80
326;DHT22;150;52.352;14.058;2023-05-19T16:32:38;18.70;13.10
326;DHT22;150;52.352;14.058;2023-05-19T16:35:06;18.80;13.20
326;DHT22;150;52.352;14.058;2023-05-19T16:37:36;18.80;13.30
326;DHT22;150;52.352;14.058;2023-05-19T16:40:07;18.90;13.30
326;DHT22;150;52.352;14.058;2023-05-19T16:42:44;19.00;12.70
326;DHT22;150;52.352;14.058;2023-05-19T16:45:23;19.10;11.90
326;DHT22;150;52.352;14.058;2023-05-19T16:47:53;19.10;11.90
326;DHT22;150;52.352;14.058;2023-05-19T16:50:30;19.00;12.50
326;DHT22;150;52.352;14.058;2023-05-19T16:53:36;18.90;12.10
326;DHT22;150;52.352;14.058;2023-05-19T16:56:17;18.90;12.90
326;DHT22;150;52.352;14.058;2023-05-19T16:58:50;18.60;13.90
326;DHT22;150;52.352;14.058;2023-05-19T17:01:23;18.50;14.10
326;DHT22;150;52.352;14.058;2023-05-19T17:04:02;18.60;14.40
326;DHT22;150;52.352;14.058;2023-05-19T17:06:54;18.70;14.30
326;DHT22;150;52.352;14.058;2023-05-19T17:09:25;18.70;14.10
326;DHT22;150;52.352;14.058;2023-05-19T17:12:12;18.50;14.60
326;DHT22;150;52.352;14.058;2023-05-19T17:14:51;18.40;14.80
326;DHT22;150;52.352;14.058;2023-05-19T17:17:27;18.30;14.80
326;DHT22;150;52.352;14.058;2023-05-19T17:20:13;18.30;15.20
326;DHT22;150;52.352;14.058;2023-05-19T17:22:51;18.10;15.40
326;DHT22;150;52.352;14.058;2023-05-19T17:25:21;18.10;15.70
326;DHT22;150;52.352;14.058;2023-05-19T17:27:52;18.00;15.80
326;DHT22;150;52.352;14.058;2023-05-19T17:30:31;18.00;16.00
326;DHT22;150;52.352;14.058;2023-05-19T17:33:01;18.00;16.20
326;DHT22;150;52.352;14.058;2023-05-19T17:35:38;17.90;16.30
326;DHT22;150;52.352;14.058;2023-05-19T17:38:14;17.90;16.50
326;DHT22;150;52.352;14.058;2023-05-19T17:40:41;17.80;16.50
326;DHT22;150;52.352;14.058;2023-05-19T17:43:21;17.70;16.70
326;DHT22;150;52.352;14.058;2023-05-19T17:45:53;17.70;16.70
326;DHT22;150;52.352;14.058;2023-05-19T17:48:25;17.60;17.20
326;DHT22;150;52.352;14.058;2023-05-19T17:50:56;17.70;16.90
326;DHT22;150;52.352;14.058;2023-05-19T17:53:43;17.60;16.60
326;DHT22;150;52.352;14.058;2023-05-19T17:56:13;17.60;16.50
326;DHT22;150;52.352;14.058;2023-05-19T17:58:56;17.50;16.70
326;DHT22;150;52.352;14.058;2023-05-19T18:01:35;17.50;16.70
326;DHT22;150;52.352;14.058;2023-05-19T18:04:08;17.50;17.00
326;DHT22;150;52.352;14.058;2023-05-19T18:07:37;17.50;17.10
326;DHT22;150;52.352;14.058;2023-05-19T18:10:55;17.50;17.20
326;DHT22;150;52.352;14.058;2023-05-19T18:13:49;17.60;17.40
326;DHT22;150;52.352;14.058;2023-05-19T18:16:20;17.60;17.20
326;DHT22;150;52.352;14.058;2023-05-19T18:19:02;17.70;17.00
326;DHT22;150;52.352;14.058;2023-05-19T18:21:31;17.60;17.10
326;DHT22;150;52.352;14.058;2023-05-19T18:23:59;17.60;17.10
326;DHT22;150;52.352;14.058;2023-05-19T18:29:56;17.40;17.20
326;DHT22;150;52.352;14.058;2023-05-19T18:32:42;17.40;17.50
326;DHT22;150;52.352;14.058;2023-05-19T18:35:16;17.20;17.70
326;DHT22;150;52.352;14.058;2023-05-19T18:37:53;17.30;17.90
326;DHT22;150;52.352;14.058;2023-05-19T18:40:33;17.20;18.00